Terminal Aerodrome Forecast
Issued by NWS Pocatello, ID

Current Version | Previous Version | Text Only | Print | Product List | Glossary On
Versions: 1 2 3 4 5 6 7 8 9 10 11 12 13 14 15 16 17 18 19 20 21
000
FTUS45 KPIH 242300
TAFIDA
TAF
KIDA 242320Z 2500/2524 21010G20KT P6SM VCSH OVC070
     FM250200 19010KT P6SM VCSH BKN050 OVC070
      TEMPO 2502/2506 -SHRA OVC050
     FM251000 VRB05KT P6SM -SHRA SCT020 OVC035
     FM251800 21011G21KT P6SM -RA OVC030=

USA.gov is the U.S. government's official web portal to all federal, state and local government web resources and services.